Time;durP1;ratioP1;P1;durP2;ratioP2;P2;SDS_P1;SDS_P2;PMS_P1;PMS_P2;Temp;Humidity;BMP_temperature;BMP_pressure;BME280_temperature;BME280_humidity;BME280_pressure;Samples;Min_cycle;Max_cycle;Signal;HPM_P1;HPM_P2
2022/09/20 00:00:41;;;;;;;4.95;1.90;;;;;;;;;;5011730;28;20021;-75
2022/09/20 00:03:08;;;;;;;10.77;2.55;;;;;;;;;;5010798;28;20038;-75
2022/09/20 00:05:34;;;;;;;7.43;2.88;;;;;;;;;;5005316;28;20094;-75
2022/09/20 00:08:01;;;;;;;8.32;2.53;;;;;;;;;;5007552;28;20037;-75
2022/09/20 00:10:28;;;;;;;7.43;1.90;;;;;;;;;;5013547;28;20160;-75
2022/09/20 00:12:54;;;;;;;3.95;1.17;;;;;;;;;;5013729;28;20030;-75
2022/09/20 00:15:20;;;;;;;4.38;0.80;;;;;;;;;;5012997;28;20098;-75
2022/09/20 00:17:46;;;;;;;4.43;1.15;;;;;;;;;;5012929;28;20474;-75
2022/09/20 00:20:12;;;;;;;5.13;2.10;;;;;;;;;;5009803;28;20156;-75
2022/09/20 00:22:38;;;;;;;9.45;3.83;;;;;;;;;;5007393;28;20045;-75
2022/09/20 00:25:05;;;;;;;9.57;3.80;;;;;;;;;;5013283;28;20030;-75
2022/09/20 00:27:31;;;;;;;9.75;3.00;;;;;;;;;;5012502;28;20049;-75
2022/09/20 00:29:57;;;;;;;10.45;2.90;;;;;;;;;;5013708;28;20049;-75
2022/09/20 00:32:23;;;;;;;6.05;2.42;;;;;;;;;;5008203;28;20419;-75
2022/09/20 00:35:09;;;;;;;8.27;2.65;;;;;;;;;;5013326;28;20545;-75
2022/09/20 00:37:35;;;;;;;9.07;2.65;;;;;;;;;;5006421;28;20030;-75
2022/09/20 00:40:02;;;;;;;9.38;2.55;;;;;;;;;;4999587;28;20034;-75
2022/09/20 00:42:29;;;;;;;9.27;2.38;;;;;;;;;;5006263;28;20527;-75
2022/09/20 00:44:59;;;;;;;9.98;2.40;;;;;;;;;;5011283;28;20034;-75
2022/09/20 00:47:25;;;;;;;7.18;2.47;;;;;;;;;;5012778;28;20030;-75
2022/09/20 00:49:54;;;;;;;6.45;1.95;;;;;;;;;;5005361;28;20088;-75
2022/09/20 00:52:20;;;;;;;6.28;1.98;;;;;;;;;;5008327;28;20793;-75
2022/09/20 00:54:46;;;;;;;3.85;1.65;;;;;;;;;;5004401;28;20041;-75
2022/09/20 00:57:12;;;;;;;5.20;1.63;;;;;;;;;;5009809;28;20061;-75
2022/09/20 00:59:40;;;;;;;5.07;1.63;;;;;;;;;;5010954;28;20041;-75
2022/09/20 01:02:08;;;;;;;5.35;1.45;;;;;;;;;;5000885;28;20407;-75
2022/09/20 01:04:35;;;;;;;4.43;1.30;;;;;;;;;;5012393;28;20044;-75
2022/09/20 01:07:02;;;;;;;6.10;1.60;;;;;;;;;;5013592;28;20781;-75
2022/09/20 01:09:28;;;;;;;7.18;1.65;;;;;;;;;;4986016;28;20045;-75
2022/09/20 01:11:55;;;;;;;6.82;1.58;;;;;;;;;;5013344;28;20059;-75
2022/09/20 01:14:23;;;;;;;7.15;1.80;;;;;;;;;;5012134;28;20476;-75
2022/09/20 01:16:49;;;;;;;7.55;2.35;;;;;;;;;;5012583;28;20029;-75
2022/09/20 01:19:34;;;;;;;6.68;1.90;;;;;;;;;;5011825;28;20034;-75
2022/09/20 01:22:02;;;;;;;4.47;1.55;;;;;;;;;;5013134;28;20026;-75
2022/09/20 01:24:28;;;;;;;6.40;1.30;;;;;;;;;;4996269;28;20095;-75
2022/09/20 01:27:09;;;;;;;4.20;1.30;;;;;;;;;;5003659;28;20050;-75
2022/09/20 01:29:48;;;;;;;4.28;1.30;;;;;;;;;;5019681;28;20834;-75
2022/09/20 01:32:17;;;;;;;6.00;1.33;;;;;;;;;;4984983;28;20680;-75
2022/09/20 01:34:53;;;;;;;4.63;1.38;;;;;;;;;;5011974;28;20030;-75
2022/09/20 01:37:25;;;;;;;4.85;1.10;;;;;;;;;;4995966;28;20045;-75
2022/09/20 01:39:59;;;;;;;3.60;1.00;;;;;;;;;;5006910;28;20042;-75
2022/09/20 01:42:30;;;;;;;6.95;1.30;;;;;;;;;;5012026;28;20022;-75
2022/09/20 01:45:02;;;;;;;4.78;0.85;;;;;;;;;;5011814;28;20030;-75
2022/09/20 01:47:28;;;;;;;3.00;0.80;;;;;;;;;;5012410;28;20108;-75
2022/09/20 01:49:54;;;;;;;3.42;0.80;;;;;;;;;;5003722;28;20092;-75
2022/09/20 01:52:29;;;;;;;4.07;1.10;;;;;;;;;;5007810;28;20038;-75
2022/09/20 01:55:08;;;;;;;3.85;1.38;;;;;;;;;;5005518;28;20408;-75
2022/09/20 01:57:34;;;;;;;4.10;0.90;;;;;;;;;;5004196;28;20030;-75
2022/09/20 02:00:18;;;;;;;4.90;1.05;;;;;;;;;;5003343;28;20049;-75
2022/09/20 02:02:57;;;;;;;3.80;1.10;;;;;;;;;;4992756;28;20061;-75
2022/09/20 02:05:26;;;;;;;5.43;1.65;;;;;;;;;;4993686;28;20084;-75
2022/09/20 02:07:58;;;;;;;3.33;1.02;;;;;;;;;;5002329;28;20023;-75
2022/09/20 02:10:37;;;;;;;5.97;1.15;;;;;;;;;;4988382;28;20132;-75
2022/09/20 02:13:06;;;;;;;3.97;1.60;;;;;;;;;;5005838;28;20038;-75
2022/09/20 02:15:51;;;;;;;4.80;1.50;;;;;;;;;;5011047;28;20030;-75
2022/09/20 02:18:17;;;;;;;9.73;2.15;;;;;;;;;;4999680;28;20100;-75
2022/09/20 02:20:46;;;;;;;5.30;2.10;;;;;;;;;;5004094;28;20550;-75
2022/09/20 02:23:13;;;;;;;5.22;1.40;;;;;;;;;;5010571;28;20034;-75
2022/09/20 02:26:02;;;;;;;4.68;1.38;;;;;;;;;;4997840;28;20460;-75
2022/09/20 02:28:48;;;;;;;3.78;1.13;;;;;;;;;;5007897;28;20041;-75
2022/09/20 02:31:33;;;;;;;5.75;1.38;;;;;;;;;;5007589;28;20065;-75
2022/09/20 02:34:10;;;;;;;6.22;1.40;;;;;;;;;;5008216;28;20053;-74
2022/09/20 02:37:15;;;;;;;3.95;1.20;;;;;;;;;;5001729;28;20084;-75
2022/09/20 02:39:59;;;;;;;5.90;1.30;;;;;;;;;;4896447;29;20036;-75
2022/09/20 02:42:31;;;;;;;2.67;0.90;;;;;;;;;;4906446;29;20048;-75
2022/09/20 02:45:09;;;;;;;3.53;1.13;;;;;;;;;;4966434;28;20378;-75
2022/09/20 02:47:39;;;;;;;2.55;0.90;;;;;;;;;;5004668;28;20034;-74
2022/09/20 02:50:24;;;;;;;4.45;1.08;;;;;;;;;;5009251;28;20030;-75
2022/09/20 02:53:09;;;;;;;6.82;1.63;;;;;;;;;;5006427;28;20030;-75
2022/09/20 02:55:40;;;;;;;3.25;0.80;;;;;;;;;;4991545;28;20049;-75
2022/09/20 02:58:07;;;;;;;3.65;0.90;;;;;;;;;;4990573;28;20040;-75
2022/09/20 03:00:39;;;;;;;3.20;0.68;;;;;;;;;;5010645;28;20053;-75
2022/09/20 03:03:05;;;;;;;;;;;;;;;;;;5010752;28;20103;-75
2022/09/20 03:05:49;;;;;;;3.83;0.90;;;;;;;;;;5000875;28;19913;-75
2022/09/20 03:08:24;;;;;;;6.78;1.00;;;;;;;;;;4999919;28;20073;-75
2022/09/20 03:10:56;;;;;;;2.90;0.68;;;;;;;;;;4997399;28;20053;-75
2022/09/20 03:13:41;;;;;;;3.75;0.90;;;;;;;;;;5004452;28;20745;-75
2022/09/20 03:16:07;;;;;;;4.28;0.80;;;;;;;;;;5008109;28;20037;-75
2022/09/20 03:18:41;;;;;;;2.70;1.05;;;;;;;;;;5010337;28;20674;-75
2022/09/20 03:21:16;;;;;;;4.07;0.85;;;;;;;;;;5003528;28;20384;-75
2022/09/20 03:23:45;;;;;;;3.13;0.93;;;;;;;;;;5004814;28;20425;-75
2022/09/20 03:26:30;;;;;;;3.53;0.90;;;;;;;;;;4993552;28;20054;-75
2022/09/20 03:29:02;;;;;;;3.60;1.10;;;;;;;;;;5002844;28;20034;-75
2022/09/20 03:31:38;;;;;;;5.25;0.90;;;;;;;;;;5007369;28;20113;-75
2022/09/20 03:34:22;;;;;;;3.00;0.90;;;;;;;;;;4999518;28;20038;-75
2022/09/20 03:36:53;;;;;;;6.22;1.30;;;;;;;;;;4977092;28;20033;-75
2022/09/20 03:39:30;;;;;;;7.82;1.50;;;;;;;;;;5009680;28;20041;-75
2022/09/20 03:42:09;;;;;;;8.20;1.63;;;;;;;;;;5003488;28;20038;-75
2022/09/20 03:44:35;;;;;;;4.22;1.55;;;;;;;;;;5003974;28;20022;-75
2022/09/20 03:47:07;;;;;;;10.23;1.88;;;;;;;;;;5009871;28;20125;-75
2022/09/20 03:49:33;;;;;;;9.38;1.55;;;;;;;;;;5010280;28;20042;-75
2022/09/20 03:52:18;;;;;;;4.75;1.42;;;;;;;;;;5005624;28;20084;-75
2022/09/20 03:54:44;;;;;;;8.75;1.48;;;;;;;;;;4999474;28;20081;-75
2022/09/20 03:57:19;;;;;;;7.68;1.83;;;;;;;;;;4999793;28;20062;-75
2022/09/20 03:59:48;;;;;;;5.55;1.50;;;;;;;;;;5006273;28;20076;-75
2022/09/20 04:02:21;;;;;;;5.47;1.58;;;;;;;;;;5003509;28;20065;-75
2022/09/20 04:04:49;;;;;;;8.23;2.08;;;;;;;;;;4998087;28;20041;-75
2022/09/20 04:07:23;;;;;;;8.30;2.20;;;;;;;;;;4997742;28;20069;-75
2022/09/20 04:10:07;;;;;;;11.20;1.92;;;;;;;;;;5001085;28;20419;-75
2022/09/20 04:12:39;;;;;;;8.82;2.35;;;;;;;;;;4991235;28;20049;-74
2022/09/20 04:15:21;;;;;;;7.47;2.22;;;;;;;;;;5005044;28;20152;-75
2022/09/20 04:18:24;;;;;;;4.60;1.40;;;;;;;;;;5004218;28;20030;-75
2022/09/20 04:20:50;;;;;;;;;;;;;;;;;;5014230;28;20030;-75
2022/09/20 04:23:25;;;;;;;7.72;2.03;;;;;;;;;;5013584;28;20405;-75
2022/09/20 04:25:51;;;;;;;6.85;2.65;;;;;;;;;;5005853;28;20038;-75
2022/09/20 04:28:30;;;;;;;10.98;2.30;;;;;;;;;;4994895;28;20748;-75
2022/09/20 04:30:59;;;;;;;8.82;1.98;;;;;;;;;;5007340;28;20030;-75
2022/09/20 04:33:27;;;;;;;5.95;1.98;;;;;;;;;;5012560;28;20037;-75
2022/09/20 04:36:29;;;;;;;9.77;2.88;;;;;;;;;;5003972;28;20027;-75
2022/09/20 04:39:10;;;;;;;11.25;3.67;;;;;;;;;;4990494;28;20077;-75
2022/09/20 04:41:36;;;;;;;10.80;4.60;;;;;;;;;;4992260;28;20053;-75
2022/09/20 04:44:10;;;;;;;12.23;5.07;;;;;;;;;;5000291;28;20491;-75
2022/09/20 04:46:36;;;;;;;10.77;4.63;;;;;;;;;;5011223;28;20128;-74
2022/09/20 04:49:05;;;;;;;10.32;4.28;;;;;;;;;;4990892;28;20117;-75
2022/09/20 04:51:31;;;;;;;15.10;4.32;;;;;;;;;;5012864;28;20022;-75
2022/09/20 04:54:16;;;;;;;11.95;4.13;;;;;;;;;;5012724;28;20720;-75
2022/09/20 04:56:42;;;;;;;10.27;4.00;;;;;;;;;;5009672;28;20112;-75
2022/09/20 04:59:10;;;;;;;9.57;3.35;;;;;;;;;;5012224;28;20105;-75
2022/09/20 05:01:35;;;;;;;11.52;3.30;;;;;;;;;;5012410;28;20033;-75
2022/09/20 05:04:13;;;;;;;10.48;3.40;;;;;;;;;;5010210;28;20037;-75
2022/09/20 05:06:46;;;;;;;11.55;3.80;;;;;;;;;;5003248;28;20022;-75
2022/09/20 05:09:12;;;;;;;;;;;;;;;;;;5009091;28;20041;-75
2022/09/20 05:11:52;;;;;;;10.07;3.63;;;;;;;;;;5004259;28;19917;-75
2022/09/20 05:14:19;;;;;;;8.38;3.95;;;;;;;;;;5010177;28;20030;-75
2022/09/20 05:16:57;;;;;;;13.85;3.50;;;;;;;;;;4995450;28;20124;-75
2022/09/20 05:19:29;;;;;;;9.55;3.42;;;;;;;;;;4994893;28;20030;-74
2022/09/20 05:22:16;;;;;;;12.02;3.38;;;;;;;;;;4994198;28;20065;-74
2022/09/20 05:25:00;;;;;;;11.35;3.50;;;;;;;;;;4997236;28;20026;-74
2022/09/20 05:27:48;;;;;;;12.20;3.55;;;;;;;;;;5006734;28;20549;-74
2022/09/20 05:30:14;;;;;;;7.97;2.75;;;;;;;;;;5009275;28;20407;-75
2022/09/20 05:32:44;;;;;;;10.13;4.10;;;;;;;;;;5007853;28;20040;-74
2022/09/20 05:35:20;;;;;;;14.80;4.55;;;;;;;;;;4999280;28;20034;-75
2022/09/20 05:37:50;;;;;;;8.35;3.05;;;;;;;;;;5002784;28;20036;-74
2022/09/20 05:40:16;;;;;;;13.23;4.03;;;;;;;;;;5006632;28;20045;-74
2022/09/20 05:42:47;;;;;;;15.43;2.83;;;;;;;;;;4999300;28;20129;-74
2022/09/20 05:45:22;;;;;;;11.93;2.67;;;;;;;;;;5011273;28;20040;-74
2022/09/20 05:48:03;;;;;;;11.05;2.80;;;;;;;;;;5008069;28;20372;-74
2022/09/20 05:50:48;;;;;;;8.55;3.85;;;;;;;;;;5009683;28;20061;-74
2022/09/20 05:53:29;;;;;;;14.02;5.28;;;;;;;;;;5011536;28;20494;-75
2022/09/20 05:56:11;;;;;;;13.45;4.05;;;;;;;;;;5011663;28;20037;-74
2022/09/20 05:58:56;;;;;;;12.67;3.60;;;;;;;;;;5001795;28;20033;-74
2022/09/20 06:01:22;;;;;;;12.88;3.88;;;;;;;;;;5007234;28;20471;-74
2022/09/20 06:03:54;;;;;;;10.45;3.15;;;;;;;;;;5017957;28;20029;-74
2022/09/20 06:06:49;;;;;;;10.55;3.38;;;;;;;;;;5010974;28;20071;-74
2022/09/20 06:09:19;;;;;;;13.57;3.25;;;;;;;;;;4992354;28;20423;-75
2022/09/20 06:12:20;;;;;;;9.63;2.80;;;;;;;;;;5000950;28;20030;-74
2022/09/20 06:15:10;;;;;;;12.80;3.35;;;;;;;;;;4912098;29;20430;-74
2022/09/20 06:17:40;;;;;;;13.18;3.25;;;;;;;;;;4994926;28;20541;-74
2022/09/20 06:20:20;;;;;;;18.15;3.00;;;;;;;;;;5010080;28;20030;-74
2022/09/20 06:22:49;;;;;;;12.88;3.25;;;;;;;;;;5004667;28;20036;-74
2022/09/20 06:25:31;;;;;;;10.73;2.47;;;;;;;;;;5012041;28;20034;-74
2022/09/20 06:28:05;;;;;;;14.93;3.25;;;;;;;;;;5012435;28;20080;-75
2022/09/20 06:30:36;;;;;;;11.70;2.40;;;;;;;;;;5012541;28;20129;-75
2022/09/20 06:33:05;;;;;;;10.23;2.30;;;;;;;;;;5015357;28;20033;-74
2022/09/20 06:35:51;;;;;;;9.60;2.20;;;;;;;;;;5013858;28;20536;-74
2022/09/20 06:41:26;;;;;;;8.30;2.40;;;;;;;;;;5007013;28;20189;-75
2022/09/20 06:43:53;;;;;;;14.00;2.33;;;;;;;;;;5004941;28;20149;-74
2022/09/20 06:46:21;;;;;;;12.63;2.45;;;;;;;;;;5012718;28;20022;-75
2022/09/20 06:48:49;;;;;;;10.23;2.85;;;;;;;;;;5017231;28;20048;-75
2022/09/20 06:51:15;;;;;;;8.23;2.60;;;;;;;;;;5010848;28;20037;-75
2022/09/20 06:53:41;;;;;;;14.30;2.75;;;;;;;;;;5019923;28;20144;-75
2022/09/20 06:56:27;;;;;;;10.07;2.78;;;;;;;;;;5013267;28;20072;-75
2022/09/20 06:58:53;;;;;;;10.30;2.53;;;;;;;;;;5014895;28;20057;-74
2022/09/20 07:01:20;;;;;;;11.35;2.47;;;;;;;;;;5024177;28;20026;-75
2022/09/20 07:03:46;;;;;;;9.30;2.83;;;;;;;;;;5007740;28;20792;-75
2022/09/20 07:06:14;;;;;;;10.90;3.30;;;;;;;;;;5010419;28;20033;-75
2022/09/20 07:08:42;;;;;;;8.02;2.63;;;;;;;;;;5006222;28;20049;-75
2022/09/20 07:11:11;;;;;;;8.60;2.40;;;;;;;;;;5014172;28;20061;-75
2022/09/20 07:13:37;;;;;;;7.68;2.60;;;;;;;;;;5009118;28;20157;-75
2022/09/20 07:16:04;;;;;;;10.70;2.58;;;;;;;;;;5023861;28;20108;-75
2022/09/20 07:18:32;;;;;;;12.75;2.30;;;;;;;;;;5016584;28;20036;-75
2022/09/20 07:20:58;;;;;;;11.20;3.13;;;;;;;;;;5002661;28;20393;-75
2022/09/20 07:23:25;;;;;;;10.20;1.80;;;;;;;;;;5017348;28;20139;-75
2022/09/20 07:25:51;;;;;;;18.00;4.70;;;;;;;;;;5011153;28;20113;-75
2022/09/20 07:28:19;;;;;;;7.45;1.77;;;;;;;;;;5014009;28;20030;-75
2022/09/20 07:30:45;;;;;;;8.25;1.90;;;;;;;;;;5013987;28;20036;-75
2022/09/20 07:33:16;;;;;;;8.73;2.33;;;;;;;;;;5015142;28;20041;-75
2022/09/20 07:35:42;;;;;;;11.05;2.95;;;;;;;;;;5002398;28;20018;-75
2022/09/20 07:38:08;;;;;;;7.68;2.35;;;;;;;;;;5019302;28;20096;-75
2022/09/20 07:40:34;;;;;;;10.75;2.47;;;;;;;;;;5018985;28;20117;-75
2022/09/20 07:43:00;;;;;;;10.45;2.40;;;;;;;;;;5016993;28;20379;-75
2022/09/20 07:45:26;;;;;;;11.15;2.78;;;;;;;;;;5020095;28;20029;-75
2022/09/20 07:47:53;;;;;;;5.72;2.35;;;;;;;;;;5013899;28;20038;-76
2022/09/20 07:50:19;;;;;;;10.75;2.45;;;;;;;;;;5009503;28;20065;-75
2022/09/20 07:52:45;;;;;;;9.30;2.20;;;;;;;;;;5020036;28;20026;-75
2022/09/20 07:55:11;;;;;;;9.82;2.42;;;;;;;;;;5014248;28;20025;-75
2022/09/20 07:57:38;;;;;;;11.68;2.20;;;;;;;;;;5016940;28;20034;-76
2022/09/20 08:00:05;;;;;;;10.30;2.33;;;;;;;;;;5011225;28;20034;-75
2022/09/20 08:02:31;;;;;;;10.32;2.30;;;;;;;;;;5003634;28;20037;-76
2022/09/20 08:04:57;;;;;;;6.60;2.28;;;;;;;;;;5008892;28;20041;-75
2022/09/20 08:07:23;;;;;;;12.93;2.83;;;;;;;;;;5008113;28;20062;-76
2022/09/20 08:09:49;;;;;;;9.55;2.03;;;;;;;;;;5008432;28;20073;-76
2022/09/20 08:12:18;;;;;;;8.95;2.17;;;;;;;;;;5012355;28;20062;-76
2022/09/20 08:14:44;;;;;;;5.50;1.80;;;;;;;;;;5019903;28;20430;-76
2022/09/20 08:17:10;;;;;;;7.93;2.65;;;;;;;;;;5013393;28;20080;-76
2022/09/20 08:19:38;;;;;;;6.57;1.95;;;;;;;;;;5018562;28;20817;-76
2022/09/20 08:22:05;;;;;;;5.57;1.52;;;;;;;;;;5020357;28;20443;-75
2022/09/20 08:24:31;;;;;;;8.25;1.92;;;;;;;;;;5011047;28;20471;-76
2022/09/20 08:26:58;;;;;;;7.13;1.73;;;;;;;;;;5008595;28;20054;-76
2022/09/20 08:29:24;;;;;;;3.38;1.00;;;;;;;;;;5016729;28;20737;-75
2022/09/20 08:31:51;;;;;;;4.25;1.10;;;;;;;;;;5022981;28;20040;-76
2022/09/20 08:34:17;;;;;;;3.05;1.20;;;;;;;;;;5019256;28;20029;-76
2022/09/20 08:36:45;;;;;;;7.50;2.03;;;;;;;;;;5021230;28;20041;-76
2022/09/20 08:39:12;;;;;;;7.78;1.55;;;;;;;;;;5018731;28;20033;-76
2022/09/20 08:41:38;;;;;;;2.75;0.80;;;;;;;;;;5015467;28;20108;-76
2022/09/20 08:44:05;;;;;;;5.05;0.90;;;;;;;;;;5002914;28;20105;-76
2022/09/20 08:46:34;;;;;;;3.90;0.95;;;;;;;;;;5018633;28;20037;-76
2022/09/20 08:49:02;;;;;;;4.75;1.15;;;;;;;;;;5017294;28;20026;-75
2022/09/20 08:51:29;;;;;;;2.90;0.80;;;;;;;;;;5019705;28;20036;-76
2022/09/20 08:53:57;;;;;;;5.22;1.05;;;;;;;;;;5023622;28;20041;-76
2022/09/20 08:56:23;;;;;;;4.70;1.13;;;;;;;;;;5018087;28;20072;-76
2022/09/20 08:58:49;;;;;;;8.90;4.53;;;;;;;;;;5022790;28;20026;-76
2022/09/20 09:01:20;;;;;;;3.45;1.20;;;;;;;;;;5014617;28;20159;-76
2022/09/20 09:03:46;;;;;;;3.78;0.70;;;;;;;;;;5019625;28;20025;-76
2022/09/20 09:06:14;;;;;;;3.95;1.25;;;;;;;;;;5013421;28;20045;-76
2022/09/20 09:08:43;;;;;;;4.18;1.10;;;;;;;;;;5002802;28;20033;-76
2022/09/20 09:11:13;;;;;;;3.03;1.10;;;;;;;;;;5017768;28;20038;-76
2022/09/20 09:13:47;;;;;;;7.43;1.33;;;;;;;;;;5018188;28;20497;-76
2022/09/20 09:16:14;;;;;;;3.47;1.02;;;;;;;;;;5019265;28;20075;-76
2022/09/20 09:18:41;;;;;;;3.65;0.80;;;;;;;;;;5013797;28;20033;-76
2022/09/20 09:21:09;;;;;;;3.80;1.10;;;;;;;;;;5014555;28;20041;-76
2022/09/20 09:23:40;;;;;;;4.95;1.08;;;;;;;;;;5025612;28;20017;-76
2022/09/20 09:26:13;;;;;;;5.40;1.05;;;;;;;;;;5022700;28;20052;-76
2022/09/20 09:28:39;;;;;;;8.38;0.88;;;;;;;;;;5021387;28;20053;-76
2022/09/20 09:31:36;;;;;;;5.60;0.93;;;;;;;;;;5019235;28;20104;-76
2022/09/20 09:34:02;;;;;;;4.43;0.77;;;;;;;;;;4992719;28;20130;-76
2022/09/20 09:36:28;;;;;;;4.30;0.82;;;;;;;;;;5018503;28;20029;-76
2022/09/20 09:39:15;;;;;;;1.90;0.65;;;;;;;;;;5013977;28;20614;-76
2022/09/20 09:41:42;;;;;;;3.83;0.80;;;;;;;;;;5011025;28;20040;-76
2022/09/20 09:44:19;;;;;;;6.93;0.98;;;;;;;;;;5007643;28;20114;-76
2022/09/20 09:46:45;;;;;;;4.13;0.90;;;;;;;;;;5013612;28;20052;-76
2022/09/20 09:49:16;;;;;;;3.38;0.80;;;;;;;;;;5009571;28;20068;-76
2022/09/20 09:52:00;;;;;;;6.40;1.15;;;;;;;;;;5013362;28;20049;-76
2022/09/20 09:54:27;;;;;;;4.05;0.73;;;;;;;;;;5018240;28;20061;-76
2022/09/20 09:57:09;;;;;;;4.55;0.90;;;;;;;;;;5013564;28;20041;-76
2022/09/20 09:59:41;;;;;;;5.05;0.80;;;;;;;;;;4994820;28;20403;-76
2022/09/20 10:02:09;;;;;;;8.35;1.10;;;;;;;;;;5011888;28;20109;-76
2022/09/20 10:05:01;;;;;;;3.55;0.93;;;;;;;;;;5009866;28;20025;-76
2022/09/20 10:07:38;;;;;;;3.45;0.80;;;;;;;;;;4989585;28;20132;-77
2022/09/20 10:10:07;;;;;;;4.35;1.00;;;;;;;;;;5013272;28;20030;-76
2022/09/20 10:12:44;;;;;;;3.95;0.98;;;;;;;;;;5008497;28;20034;-76
2022/09/20 10:15:14;;;;;;;7.00;1.13;;;;;;;;;;5016938;28;20103;-76
2022/09/20 10:17:47;;;;;;;5.05;0.75;;;;;;;;;;5011783;28;20030;-76
2022/09/20 10:20:26;;;;;;;7.22;1.00;;;;;;;;;;5006210;28;20030;-76
2022/09/20 10:23:01;;;;;;;4.22;0.88;;;;;;;;;;5011964;28;20028;-77
2022/09/20 10:25:33;;;;;;;5.18;0.80;;;;;;;;;;5012891;28;20101;-76
2022/09/20 10:27:59;;;;;;;;;;;;;;;;;;5011743;28;20107;-76
2022/09/20 10:30:33;;;;;;;4.50;1.00;;;;;;;;;;5008526;28;20005;-76
2022/09/20 10:33:02;;;;;;;3.17;0.93;;;;;;;;;;5008922;28;20120;-76
2022/09/20 10:35:28;;;;;;;3.90;1.00;;;;;;;;;;5006219;28;20025;-76
2022/09/20 10:38:06;;;;;;;3.78;0.82;;;;;;;;;;5018782;28;20030;-76
2022/09/20 10:43:29;;;;;;;10.60;2.45;;;;;;;;;;5014948;28;20133;-76
2022/09/20 10:45:55;;;;;;;3.00;0.70;;;;;;;;;;5012176;28;20105;-76
2022/09/20 10:48:21;;;;;;;3.63;0.77;;;;;;;;;;5011832;28;20109;-76
2022/09/20 10:50:47;;;;;;;6.35;0.88;;;;;;;;;;5007423;28;20029;-77
2022/09/20 10:53:19;;;;;;;7.03;0.80;;;;;;;;;;5004893;28;20424;-76
2022/09/20 10:55:48;;;;;;;2.78;1.00;;;;;;;;;;5026240;28;20722;-76
2022/09/20 10:58:20;;;;;;;5.25;0.75;;;;;;;;;;5011946;28;20060;-76
2022/09/20 11:00:52;;;;;;;6.85;1.20;;;;;;;;;;5006385;28;20032;-76
2022/09/20 11:03:18;;;;;;;;;;;;;;;;;;5007481;28;20105;-76
2022/09/20 11:06:06;;;;;;;7.35;1.50;;;;;;;;;;5012573;28;20012;-76
2022/09/20 11:08:33;;;;;;;4.10;1.02;;;;;;;;;;5003573;28;20133;-76
2022/09/20 11:11:04;;;;;;;5.03;1.33;;;;;;;;;;5011150;28;20108;-76
2022/09/20 11:13:33;;;;;;;4.22;1.27;;;;;;;;;;5005592;28;20081;-76
2022/09/20 11:15:59;;;;;;;6.75;1.17;;;;;;;;;;5011246;28;20030;-76
2022/09/20 11:18:31;;;;;;;5.45;0.93;;;;;;;;;;5023821;28;20029;-77
2022/09/20 11:20:57;;;;;;;6.85;1.10;;;;;;;;;;5013769;28;20048;-76
2022/09/20 11:23:59;;;;;;;6.63;1.00;;;;;;;;;;5008434;28;20470;-76
2022/09/20 11:26:25;;;;;;;5.20;1.13;;;;;;;;;;4912256;29;20447;-76
2022/09/20 11:28:54;;;;;;;4.60;0.98;;;;;;;;;;4984030;28;20415;-76
2022/09/20 11:31:26;;;;;;;5.05;0.85;;;;;;;;;;5016305;28;20075;-76
2022/09/20 11:33:52;;;;;;;;;;;;;;;;;;5016517;28;20097;-76
2022/09/20 11:36:51;;;;;;;4.13;0.98;;;;;;;;;;5010152;28;19913;-76
2022/09/20 11:39:37;;;;;;;4.38;1.27;;;;;;;;;;5005122;28;20045;-75
2022/09/20 11:42:04;;;;;;;4.18;0.90;;;;;;;;;;5015368;28;20033;-76
2022/09/20 11:44:30;;;;;;;6.47;1.55;;;;;;;;;;5012540;28;20030;-76
2022/09/20 11:47:05;;;;;;;4.55;0.95;;;;;;;;;;5016629;28;20081;-76
2022/09/20 11:49:39;;;;;;;3.50;0.80;;;;;;;;;;5021729;28;20092;-76
2022/09/20 11:52:09;;;;;;;3.28;0.70;;;;;;;;;;5017560;28;20065;-75
2022/09/20 11:54:56;;;;;;;8.40;1.00;;;;;;;;;;5004380;28;20495;-75
2022/09/20 11:57:23;;;;;;;5.72;1.02;;;;;;;;;;5010675;28;20056;-75
2022/09/20 11:59:54;;;;;;;4.00;0.90;;;;;;;;;;4995407;28;20664;-75
2022/09/20 12:02:27;;;;;;;2.85;0.90;;;;;;;;;;5012935;28;20054;-75
2022/09/20 12:04:54;;;;;;;4.80;1.08;;;;;;;;;;5001131;28;20025;-76
2022/09/20 12:07:38;;;;;;;4.30;0.80;;;;;;;;;;5027460;28;20030;-76
2022/09/20 12:10:21;;;;;;;7.18;1.48;;;;;;;;;;4988271;28;20361;-75
2022/09/20 12:12:50;;;;;;;3.08;0.90;;;;;;;;;;5014310;28;20033;-75
2022/09/20 12:15:21;;;;;;;6.97;1.20;;;;;;;;;;5003787;28;20545;-75
2022/09/20 12:17:48;;;;;;;2.63;0.75;;;;;;;;;;5014853;28;20038;-76
2022/09/20 12:20:37;;;;;;;7.47;1.08;;;;;;;;;;5013715;28;20344;-76
2022/09/20 12:23:22;;;;;;;8.05;1.38;;;;;;;;;;5004899;28;20037;-76
2022/09/20 12:26:01;;;;;;;3.72;0.98;;;;;;;;;;5002296;28;20033;-76
2022/09/20 12:28:38;;;;;;;4.45;0.90;;;;;;;;;;5020253;28;20053;-76
2022/09/20 12:31:19;;;;;;;5.65;0.85;;;;;;;;;;5005739;28;20030;-75
2022/09/20 12:33:58;;;;;;;3.42;0.80;;;;;;;;;;5012223;28;20072;-76
2022/09/20 12:36:24;;;;;;;11.77;1.45;;;;;;;;;;5013977;28;20035;-76
2022/09/20 12:38:56;;;;;;;5.60;1.30;;;;;;;;;;5015930;28;20475;-76
2022/09/20 12:41:22;;;;;;;5.82;1.17;;;;;;;;;;5017814;28;20337;-75
2022/09/20 12:43:51;;;;;;;4.97;1.42;;;;;;;;;;5012902;28;20044;-76
2022/09/20 12:46:23;;;;;;;5.00;1.20;;;;;;;;;;5015800;28;20108;-75
2022/09/20 12:48:49;;;;;;;6.90;1.50;;;;;;;;;;5005602;28;20037;-76
2022/09/20 12:54:08;;;;;;;5.53;1.65;;;;;;;;;;5005834;28;20521;-76
2022/09/20 12:56:38;;;;;;;3.58;1.10;;;;;;;;;;5009264;28;20034;-76
2022/09/20 12:59:06;;;;;;;5.72;1.33;;;;;;;;;;5010547;28;20042;-75
2022/09/20 13:01:34;;;;;;;6.00;1.80;;;;;;;;;;5012951;28;20729;-75
2022/09/20 13:04:19;;;;;;;6.68;1.52;;;;;;;;;;5009800;28;20479;-76
2022/09/20 13:06:45;;;;;;;5.95;1.92;;;;;;;;;;5008625;28;20034;-76
2022/09/20 13:09:12;;;;;;;8.02;1.67;;;;;;;;;;5003585;28;20526;-76
2022/09/20 13:11:42;;;;;;;6.68;1.77;;;;;;;;;;5003002;28;20351;-76
2022/09/20 13:14:22;;;;;;;9.73;1.80;;;;;;;;;;5019139;28;20041;-75
2022/09/20 13:16:57;;;;;;;7.18;1.88;;;;;;;;;;5010157;28;20348;-76
2022/09/20 13:19:27;;;;;;;7.35;1.80;;;;;;;;;;5020772;28;20056;-76
2022/09/20 13:22:01;;;;;;;7.32;1.67;;;;;;;;;;5011580;28;20452;-75
2022/09/20 13:24:28;;;;;;;6.93;1.52;;;;;;;;;;5009630;28;20360;-76
2022/09/20 13:26:56;;;;;;;5.68;1.33;;;;;;;;;;5012848;28;20128;-76
2022/09/20 13:29:32;;;;;;;5.28;1.75;;;;;;;;;;5012628;28;20495;-76
2022/09/20 13:32:17;;;;;;;7.20;1.98;;;;;;;;;;5016833;28;20080;-76
2022/09/20 13:34:44;;;;;;;7.22;1.92;;;;;;;;;;5011694;28;20034;-76
2022/09/20 13:37:22;;;;;;;4.38;1.73;;;;;;;;;;5009979;28;20371;-76
2022/09/20 13:39:53;;;;;;;9.48;2.03;;;;;;;;;;5011735;28;20049;-76
2022/09/20 13:42:19;;;;;;;6.72;1.40;;;;;;;;;;5012091;28;20038;-76
2022/09/20 13:44:46;;;;;;;9.68;1.73;;;;;;;;;;5011529;28;20026;-76
2022/09/20 13:47:26;;;;;;;5.93;1.27;;;;;;;;;;5011784;28;20120;-76
2022/09/20 13:49:52;;;;;;;8.93;2.15;;;;;;;;;;5011539;28;20812;-76
2022/09/20 13:52:23;;;;;;;7.22;1.60;;;;;;;;;;5001351;28;20391;-76
2022/09/20 13:54:49;;;;;;;7.40;1.58;;;;;;;;;;5011446;28;20160;-76
2022/09/20 13:57:18;;;;;;;5.72;1.33;;;;;;;;;;5005676;28;20117;-76
2022/09/20 13:59:45;;;;;;;6.38;1.77;;;;;;;;;;5016338;28;20033;-75
2022/09/20 14:02:31;;;;;;;4.88;1.88;;;;;;;;;;5002671;28;20037;-75
2022/09/20 14:04:59;;;;;;;7.68;1.80;;;;;;;;;;5012987;28;20033;-75
2022/09/20 14:07:27;;;;;;;6.85;1.50;;;;;;;;;;5007698;28;20487;-76
2022/09/20 14:09:53;;;;;;;4.93;1.35;;;;;;;;;;5011646;28;20030;-76
2022/09/20 14:12:21;;;;;;;8.07;1.40;;;;;;;;;;4999962;28;20041;-76
2022/09/20 14:14:47;;;;;;;7.80;1.55;;;;;;;;;;5010774;28;20057;-76
2022/09/20 14:17:15;;;;;;;5.88;1.00;;;;;;;;;;5018246;28;20116;-76
2022/09/20 14:19:42;;;;;;;5.03;1.20;;;;;;;;;;5011214;28;20053;-75
2022/09/20 14:22:13;;;;;;;4.90;1.20;;;;;;;;;;5001601;28;20062;-75
2022/09/20 14:24:40;;;;;;;5.32;1.33;;;;;;;;;;5007460;28;20033;-76
2022/09/20 14:27:17;;;;;;;6.95;1.13;;;;;;;;;;4998873;28;20053;-76
2022/09/20 14:29:45;;;;;;;4.82;1.40;;;;;;;;;;4993892;28;20484;-76
2022/09/20 14:32:17;;;;;;;6.53;1.38;;;;;;;;;;5007806;28;20077;-76
2022/09/20 14:34:44;;;;;;;6.90;1.30;;;;;;;;;;5011521;28;20033;-76
2022/09/20 14:37:37;;;;;;;7.38;1.60;;;;;;;;;;5003922;28;20044;-76
2022/09/20 14:40:03;;;;;;;;;;;;;;;;;;4981259;28;20041;-76
2022/09/20 14:42:35;;;;;;;5.03;1.30;;;;;;;;;;5010564;28;20411;-76
2022/09/20 14:45:02;;;;;;;6.47;1.27;;;;;;;;;;5009976;28;20506;-76
2022/09/20 14:47:38;;;;;;;3.28;1.08;;;;;;;;;;5001756;28;20030;-76
2022/09/20 14:50:25;;;;;;;2.70;0.80;;;;;;;;;;5010563;28;20099;-76
2022/09/20 14:53:01;;;;;;;5.57;1.02;;;;;;;;;;5004685;28;20034;-76
2022/09/20 14:55:27;;;;;;;6.05;1.20;;;;;;;;;;5002441;28;20038;-76
2022/09/20 14:57:57;;;;;;;5.28;0.70;;;;;;;;;;5016158;28;20067;-76
2022/09/20 15:00:24;;;;;;;5.13;1.02;;;;;;;;;;5011599;28;20092;-76
2022/09/20 15:02:50;;;;;;;5.32;1.10;;;;;;;;;;5010406;28;20105;-76
2022/09/20 15:05:18;;;;;;;4.25;0.70;;;;;;;;;;5004880;28;20056;-75
2022/09/20 15:07:44;;;;;;;4.35;1.00;;;;;;;;;;5019386;28;20381;-76
2022/09/20 15:10:14;;;;;;;7.43;1.10;;;;;;;;;;5011429;28;20081;-76
2022/09/20 15:12:41;;;;;;;7.57;0.90;;;;;;;;;;5005391;28;20175;-76
2022/09/20 15:15:13;;;;;;;6.80;1.42;;;;;;;;;;5011180;28;20042;-76
2022/09/20 15:17:39;;;;;;;5.80;1.42;;;;;;;;;;5008544;28;20030;-76
2022/09/20 15:20:05;;;;;;;3.78;0.90;;;;;;;;;;5009957;28;20495;-76